sensor_id;sensor_type;location;lat;lon;timestamp;temperature;humidity
51637;DHT22;37713;53.254;6.460;2023-02-12T00:02:09;5.80;99.90
51637;DHT22;37713;53.254;6.460;2023-02-12T00:04:35;5.80;99.90
51637;DHT22;37713;53.254;6.460;2023-02-12T00:07:01;5.80;99.90
51637;DHT22;37713;53.254;6.460;2023-02-12T00:09:26;5.80;99.90
51637;DHT22;37713;53.254;6.460;2023-02-12T00:11:52;5.80;99.90
51637;DHT22;37713;53.254;6.460;2023-02-12T00:14:18;5.80;99.90
51637;DHT22;37713;53.254;6.460;2023-02-12T00:16:43;5.70;99.90
51637;DHT22;37713;53.254;6.460;2023-02-12T00:19:09;5.70;99.90
51637;DHT22;37713;53.254;6.460;2023-02-12T00:21:35;5.70;99.90
51637;DHT22;37713;53.254;6.460;2023-02-12T00:24:01;5.80;99.90
51637;DHT22;37713;53.254;6.460;2023-02-12T00:26:27;5.70;99.90
51637;DHT22;37713;53.254;6.460;2023-02-12T00:28:53;5.70;99.90
51637;DHT22;37713;53.254;6.460;2023-02-12T00:31:26;5.70;99.90
51637;DHT22;37713;53.254;6.460;2023-02-12T00:33:52;5.70;99.90
51637;DHT22;37713;53.254;6.460;2023-02-12T00:36:22;5.70;99.90
51637;DHT22;37713;53.254;6.460;2023-02-12T00:38:49;5.70;99.90
51637;DHT22;37713;53.254;6.460;2023-02-12T00:41:15;5.70;99.90
51637;DHT22;37713;53.254;6.460;2023-02-12T00:43:41;5.70;99.90
51637;DHT22;37713;53.254;6.460;2023-02-12T00:46:07;5.70;99.90
51637;DHT22;37713;53.254;6.460;2023-02-12T00:48:34;5.70;99.90
51637;DHT22;37713;53.254;6.460;2023-02-12T00:51:00;5.70;99.90
51637;DHT22;37713;53.254;6.460;2023-02-12T00:53:27;5.70;99.90
51637;DHT22;37713;53.254;6.460;2023-02-12T00:55:52;5.70;99.90
51637;DHT22;37713;53.254;6.460;2023-02-12T00:58:18;5.70;99.90
51637;DHT22;37713;53.254;6.460;2023-02-12T01:00:44;5.70;99.90
51637;DHT22;37713;53.254;6.460;2023-02-12T01:03:10;5.70;99.90
51637;DHT22;37713;53.254;6.460;2023-02-12T01:05:36;5.70;99.90
51637;DHT22;37713;53.254;6.460;2023-02-12T01:08:03;5.70;99.90
51637;DHT22;37713;53.254;6.460;2023-02-12T01:10:29;5.70;99.90
51637;DHT22;37713;53.254;6.460;2023-02-12T01:12:54;5.70;99.90
51637;DHT22;37713;53.254;6.460;2023-02-12T01:15:21;5.70;99.90
51637;DHT22;37713;53.254;6.460;2023-02-12T01:17:47;5.70;99.90
51637;DHT22;37713;53.254;6.460;2023-02-12T01:20:15;5.70;99.90
51637;DHT22;37713;53.254;6.460;2023-02-12T01:22:42;5.70;99.90
51637;DHT22;37713;53.254;6.460;2023-02-12T01:25:09;5.70;99.90
51637;DHT22;37713;53.254;6.460;2023-02-12T01:27:35;5.70;99.90
51637;DHT22;37713;53.254;6.460;2023-02-12T01:30:01;5.70;99.90
51637;DHT22;37713;53.254;6.460;2023-02-12T01:32:27;5.70;99.90
51637;DHT22;37713;53.254;6.460;2023-02-12T01:34:53;5.70;99.90
51637;DHT22;37713;53.254;6.460;2023-02-12T01:37:19;5.70;99.90
51637;DHT22;37713;53.254;6.460;2023-02-12T01:39:45;5.70;99.90
51637;DHT22;37713;53.254;6.460;2023-02-12T01:42:15;5.70;99.90
51637;DHT22;37713;53.254;6.460;2023-02-12T01:44:44;5.70;99.90
51637;DHT22;37713;53.254;6.460;2023-02-12T01:47:16;5.70;99.90
51637;DHT22;37713;53.254;6.460;2023-02-12T01:49:45;5.70;99.90
51637;DHT22;37713;53.254;6.460;2023-02-12T01:54:41;5.60;99.90
51637;DHT22;37713;53.254;6.460;2023-02-12T01:57:08;5.60;99.90
51637;DHT22;37713;53.254;6.460;2023-02-12T01:59:37;5.60;99.90
51637;DHT22;37713;53.254;6.460;2023-02-12T02:02:05;5.60;99.90
51637;DHT22;37713;53.254;6.460;2023-02-12T02:04:44;5.60;99.90
51637;DHT22;37713;53.254;6.460;2023-02-12T02:07:11;5.60;99.90
51637;DHT22;37713;53.254;6.460;2023-02-12T02:09:38;5.60;99.90
51637;DHT22;37713;53.254;6.460;2023-02-12T02:12:05;5.60;99.90
51637;DHT22;37713;53.254;6.460;2023-02-12T02:14:54;5.60;99.90
51637;DHT22;37713;53.254;6.460;2023-02-12T02:34:30;5.50;99.90
51637;DHT22;37713;53.254;6.460;2023-02-12T02:39:42;5.60;99.90
51637;DHT22;37713;53.254;6.460;2023-02-12T02:45:01;5.60;99.90
51637;DHT22;37713;53.254;6.460;2023-02-12T02:47:45;5.50;99.90
51637;DHT22;37713;53.254;6.460;2023-02-12T02:50:14;5.60;99.90
51637;DHT22;37713;53.254;6.460;2023-02-12T02:52:49;5.60;99.90
51637;DHT22;37713;53.254;6.460;2023-02-12T02:55:17;5.60;99.90
51637;DHT22;37713;53.254;6.460;2023-02-12T02:58:00;5.60;99.90
51637;DHT22;37713;53.254;6.460;2023-02-12T03:00:39;5.60;99.90
51637;DHT22;37713;53.254;6.460;2023-02-12T03:05:52;5.60;99.90
51637;DHT22;37713;53.254;6.460;2023-02-12T03:08:26;5.60;99.90
51637;DHT22;37713;53.254;6.460;2023-02-12T03:11:18;5.60;99.90
51637;DHT22;37713;53.254;6.460;2023-02-12T03:14:01;5.60;99.90
51637;DHT22;37713;53.254;6.460;2023-02-12T03:16:32;5.60;99.90
51637;DHT22;37713;53.254;6.460;2023-02-12T03:19:16;5.60;99.90
51637;DHT22;37713;53.254;6.460;2023-02-12T03:22:03;5.60;99.90
51637;DHT22;37713;53.254;6.460;2023-02-12T03:24:53;5.60;99.90
51637;DHT22;37713;53.254;6.460;2023-02-12T03:27:31;5.60;99.90
51637;DHT22;37713;53.254;6.460;2023-02-12T03:29:58;5.60;99.90
51637;DHT22;37713;53.254;6.460;2023-02-12T03:37:51;5.60;99.90
51637;DHT22;37713;53.254;6.460;2023-02-12T03:43:27;5.60;99.90
51637;DHT22;37713;53.254;6.460;2023-02-12T03:46:07;5.60;99.90
51637;DHT22;37713;53.254;6.460;2023-02-12T03:48:46;5.60;99.90
51637;DHT22;37713;53.254;6.460;2023-02-12T03:54:02;5.60;99.90
51637;DHT22;37713;53.254;6.460;2023-02-12T03:59:02;5.60;99.90
51637;DHT22;37713;53.254;6.460;2023-02-12T04:01:28;5.60;99.90
51637;DHT22;37713;53.254;6.460;2023-02-12T04:03:55;5.60;99.90
51637;DHT22;37713;53.254;6.460;2023-02-12T04:06:23;5.60;99.90
51637;DHT22;37713;53.254;6.460;2023-02-12T04:08:50;5.70;99.90
51637;DHT22;37713;53.254;6.460;2023-02-12T04:11:45;5.60;99.90
51637;DHT22;37713;53.254;6.460;2023-02-12T04:17:08;5.70;99.90
51637;DHT22;37713;53.254;6.460;2023-02-12T04:20:11;5.60;99.90
51637;DHT22;37713;53.254;6.460;2023-02-12T04:23:07;5.60;99.90
51637;DHT22;37713;53.254;6.460;2023-02-12T04:25:40;5.60;99.90
51637;DHT22;37713;53.254;6.460;2023-02-12T04:31:09;5.60;99.90
51637;DHT22;37713;53.254;6.460;2023-02-12T04:33:46;5.70;99.90
51637;DHT22;37713;53.254;6.460;2023-02-12T04:36:20;5.70;99.90
51637;DHT22;37713;53.254;6.460;2023-02-12T04:38:52;5.60;99.90
51637;DHT22;37713;53.254;6.460;2023-02-12T04:41:20;5.60;99.90
51637;DHT22;37713;53.254;6.460;2023-02-12T04:43:46;5.60;99.90
51637;DHT22;37713;53.254;6.460;2023-02-12T04:46:12;5.60;99.90
51637;DHT22;37713;53.254;6.460;2023-02-12T04:48:56;5.60;99.90
51637;DHT22;37713;53.254;6.460;2023-02-12T04:51:23;5.60;99.90
51637;DHT22;37713;53.254;6.460;2023-02-12T04:53:49;5.60;99.90
51637;DHT22;37713;53.254;6.460;2023-02-12T04:56:16;5.60;99.90
51637;DHT22;37713;53.254;6.460;2023-02-12T04:58:41;5.60;99.90
51637;DHT22;37713;53.254;6.460;2023-02-12T05:01:08;5.60;99.90
51637;DHT22;37713;53.254;6.460;2023-02-12T05:03:35;5.50;99.90
51637;DHT22;37713;53.254;6.460;2023-02-12T05:06:05;5.50;99.90
51637;DHT22;37713;53.254;6.460;2023-02-12T05:08:32;5.50;99.90
51637;DHT22;37713;53.254;6.460;2023-02-12T05:11:03;5.50;99.90
51637;DHT22;37713;53.254;6.460;2023-02-12T05:13:29;5.50;99.90
51637;DHT22;37713;53.254;6.460;2023-02-12T05:15:55;5.50;99.90
51637;DHT22;37713;53.254;6.460;2023-02-12T05:18:21;5.40;99.90
51637;DHT22;37713;53.254;6.460;2023-02-12T05:21:01;5.40;99.90
51637;DHT22;37713;53.254;6.460;2023-02-12T05:23:32;5.40;99.90
51637;DHT22;37713;53.254;6.460;2023-02-12T05:26:00;5.40;99.90
51637;DHT22;37713;53.254;6.460;2023-02-12T05:28:26;5.40;99.90
51637;DHT22;37713;53.254;6.460;2023-02-12T05:30:52;5.50;99.90
51637;DHT22;37713;53.254;6.460;2023-02-12T05:33:18;5.40;99.90
51637;DHT22;37713;53.254;6.460;2023-02-12T05:35:44;5.40;99.90
51637;DHT22;37713;53.254;6.460;2023-02-12T05:38:09;5.40;99.90
51637;DHT22;37713;53.254;6.460;2023-02-12T05:40:35;5.30;99.90
51637;DHT22;37713;53.254;6.460;2023-02-12T05:43:01;5.40;99.90
51637;DHT22;37713;53.254;6.460;2023-02-12T05:45:27;5.30;99.90
51637;DHT22;37713;53.254;6.460;2023-02-12T05:47:55;5.30;99.90
51637;DHT22;37713;53.254;6.460;2023-02-12T05:50:21;5.40;99.90
51637;DHT22;37713;53.254;6.460;2023-02-12T05:52:47;5.40;99.90
51637;DHT22;37713;53.254;6.460;2023-02-12T05:55:13;5.40;99.90
51637;DHT22;37713;53.254;6.460;2023-02-12T05:57:39;5.30;99.90
51637;DHT22;37713;53.254;6.460;2023-02-12T06:00:06;5.30;99.90
51637;DHT22;37713;53.254;6.460;2023-02-12T06:02:33;5.30;99.90
51637;DHT22;37713;53.254;6.460;2023-02-12T06:04:59;5.40;99.90
51637;DHT22;37713;53.254;6.460;2023-02-12T06:07:25;5.30;99.90
51637;DHT22;37713;53.254;6.460;2023-02-12T06:09:51;5.30;99.90
51637;DHT22;37713;53.254;6.460;2023-02-12T06:12:17;5.20;99.90
51637;DHT22;37713;53.254;6.460;2023-02-12T06:14:43;5.20;99.90
51637;DHT22;37713;53.254;6.460;2023-02-12T06:17:08;5.20;99.90
51637;DHT22;37713;53.254;6.460;2023-02-12T06:19:35;5.20;99.90
51637;DHT22;37713;53.254;6.460;2023-02-12T06:22:01;5.20;99.90
51637;DHT22;37713;53.254;6.460;2023-02-12T06:24:27;5.20;99.90
51637;DHT22;37713;53.254;6.460;2023-02-12T06:26:56;5.20;99.90
51637;DHT22;37713;53.254;6.460;2023-02-12T06:29:22;5.20;99.90
51637;DHT22;37713;53.254;6.460;2023-02-12T06:31:48;5.20;99.90
51637;DHT22;37713;53.254;6.460;2023-02-12T06:34:14;5.20;99.90
51637;DHT22;37713;53.254;6.460;2023-02-12T06:36:44;5.20;99.90
51637;DHT22;37713;53.254;6.460;2023-02-12T06:39:12;5.20;99.90
51637;DHT22;37713;53.254;6.460;2023-02-12T06:41:38;5.20;99.90
51637;DHT22;37713;53.254;6.460;2023-02-12T06:44:04;5.20;99.90
51637;DHT22;37713;53.254;6.460;2023-02-12T06:46:30;5.20;99.90
51637;DHT22;37713;53.254;6.460;2023-02-12T06:48:58;5.20;99.90
51637;DHT22;37713;53.254;6.460;2023-02-12T06:51:26;5.20;99.90
51637;DHT22;37713;53.254;6.460;2023-02-12T06:53:53;5.10;99.90
51637;DHT22;37713;53.254;6.460;2023-02-12T06:56:21;5.10;99.90
51637;DHT22;37713;53.254;6.460;2023-02-12T06:58:52;5.10;99.90
51637;DHT22;37713;53.254;6.460;2023-02-12T07:01:24;5.20;99.90
51637;DHT22;37713;53.254;6.460;2023-02-12T07:03:56;5.10;99.90
51637;DHT22;37713;53.254;6.460;2023-02-12T07:06:22;5.20;99.90
51637;DHT22;37713;53.254;6.460;2023-02-12T07:08:49;5.10;99.90
51637;DHT22;37713;53.254;6.460;2023-02-12T07:11:15;5.10;99.90
51637;DHT22;37713;53.254;6.460;2023-02-12T07:13:42;5.10;99.90
51637;DHT22;37713;53.254;6.460;2023-02-12T07:16:14;5.10;99.90
51637;DHT22;37713;53.254;6.460;2023-02-12T07:18:41;5.10;99.90
51637;DHT22;37713;53.254;6.460;2023-02-12T07:21:08;5.10;99.90
51637;DHT22;37713;53.254;6.460;2023-02-12T07:23:34;5.10;99.90
51637;DHT22;37713;53.254;6.460;2023-02-12T07:26:02;5.20;99.90
51637;DHT22;37713;53.254;6.460;2023-02-12T07:28:29;5.20;99.90
51637;DHT22;37713;53.254;6.460;2023-02-12T07:30:59;5.10;99.90
51637;DHT22;37713;53.254;6.460;2023-02-12T07:33:25;5.20;99.90
51637;DHT22;37713;53.254;6.460;2023-02-12T07:35:51;5.20;99.90
51637;DHT22;37713;53.254;6.460;2023-02-12T07:38:16;5.20;99.90
51637;DHT22;37713;53.254;6.460;2023-02-12T07:40:43;5.20;99.90
51637;DHT22;37713;53.254;6.460;2023-02-12T07:43:08;5.20;99.90
51637;DHT22;37713;53.254;6.460;2023-02-12T07:45:34;5.30;99.90
51637;DHT22;37713;53.254;6.460;2023-02-12T07:48:00;5.30;99.90
51637;DHT22;37713;53.254;6.460;2023-02-12T07:50:25;5.30;99.90
51637;DHT22;37713;53.254;6.460;2023-02-12T07:52:51;5.40;99.90
51637;DHT22;37713;53.254;6.460;2023-02-12T07:55:17;5.30;99.90
51637;DHT22;37713;53.254;6.460;2023-02-12T07:57:44;5.40;99.90
51637;DHT22;37713;53.254;6.460;2023-02-12T08:00:10;5.40;99.90
51637;DHT22;37713;53.254;6.460;2023-02-12T08:02:36;5.40;99.90
51637;DHT22;37713;53.254;6.460;2023-02-12T08:05:02;5.40;99.90
51637;DHT22;37713;53.254;6.460;2023-02-12T08:07:28;5.40;99.90
51637;DHT22;37713;53.254;6.460;2023-02-12T08:09:54;5.40;99.90
51637;DHT22;37713;53.254;6.460;2023-02-12T08:12:20;5.40;99.90
51637;DHT22;37713;53.254;6.460;2023-02-12T08:14:46;5.40;99.90
51637;DHT22;37713;53.254;6.460;2023-02-12T08:17:11;5.50;99.90
51637;DHT22;37713;53.254;6.460;2023-02-12T08:19:37;5.50;99.90
51637;DHT22;37713;53.254;6.460;2023-02-12T08:22:03;5.50;99.90
51637;DHT22;37713;53.254;6.460;2023-02-12T08:24:31;5.50;99.90
51637;DHT22;37713;53.254;6.460;2023-02-12T08:26:57;5.50;99.90
51637;DHT22;37713;53.254;6.460;2023-02-12T08:29:25;5.60;99.90
51637;DHT22;37713;53.254;6.460;2023-02-12T08:31:55;5.60;99.90
51637;DHT22;37713;53.254;6.460;2023-02-12T08:34:30;5.60;99.90
51637;DHT22;37713;53.254;6.460;2023-02-12T08:36:57;5.70;99.90
51637;DHT22;37713;53.254;6.460;2023-02-12T08:39:25;5.70;99.90
51637;DHT22;37713;53.254;6.460;2023-02-12T08:41:53;5.80;99.90
51637;DHT22;37713;53.254;6.460;2023-02-12T08:44:19;5.80;99.90
51637;DHT22;37713;53.254;6.460;2023-02-12T08:46:48;5.90;99.90
51637;DHT22;37713;53.254;6.460;2023-02-12T08:49:17;6.00;99.90
51637;DHT22;37713;53.254;6.460;2023-02-12T08:51:48;6.00;99.90
51637;DHT22;37713;53.254;6.460;2023-02-12T08:54:17;6.10;99.90
51637;DHT22;37713;53.254;6.460;2023-02-12T08:56:43;6.20;99.90
51637;DHT22;37713;53.254;6.460;2023-02-12T08:59:10;6.20;99.90
51637;DHT22;37713;53.254;6.460;2023-02-12T09:01:37;6.30;99.90
51637;DHT22;37713;53.254;6.460;2023-02-12T09:04:04;6.40;99.90
51637;DHT22;37713;53.254;6.460;2023-02-12T09:06:32;6.40;99.90
51637;DHT22;37713;53.254;6.460;2023-02-12T09:08:58;6.40;99.90
51637;DHT22;37713;53.254;6.460;2023-02-12T09:11:26;6.50;99.90
51637;DHT22;37713;53.254;6.460;2023-02-12T09:14:00;6.50;99.90
51637;DHT22;37713;53.254;6.460;2023-02-12T09:16:28;6.60;99.90
51637;DHT22;37713;53.254;6.460;2023-02-12T09:18:54;6.70;99.90
51637;DHT22;37713;53.254;6.460;2023-02-12T09:21:20;6.80;99.90
51637;DHT22;37713;53.254;6.460;2023-02-12T09:23:47;6.90;99.90
51637;DHT22;37713;53.254;6.460;2023-02-12T09:26:16;7.00;99.90
51637;DHT22;37713;53.254;6.460;2023-02-12T09:28:42;7.00;99.90
51637;DHT22;37713;53.254;6.460;2023-02-12T09:31:13;7.20;99.90
51637;DHT22;37713;53.254;6.460;2023-02-12T09:33:40;7.20;99.90
51637;DHT22;37713;53.254;6.460;2023-02-12T09:36:12;7.30;99.90
51637;DHT22;37713;53.254;6.460;2023-02-12T09:38:38;7.40;99.90
51637;DHT22;37713;53.254;6.460;2023-02-12T09:52:25;7.60;99.90
51637;DHT22;37713;53.254;6.460;2023-02-12T09:54:52;7.60;99.90
51637;DHT22;37713;53.254;6.460;2023-02-12T09:57:23;7.60;99.90
51637;DHT22;37713;53.254;6.460;2023-02-12T10:00:28;7.70;99.90
51637;DHT22;37713;53.254;6.460;2023-02-12T10:03:03;7.80;99.90
51637;DHT22;37713;53.254;6.460;2023-02-12T10:06:03;7.80;99.90
51637;DHT22;37713;53.254;6.460;2023-02-12T10:14:25;7.90;99.90
51637;DHT22;37713;53.254;6.460;2023-02-12T10:27:56;8.10;99.90
51637;DHT22;37713;53.254;6.460;2023-02-12T10:33:15;8.10;99.90
51637;DHT22;37713;53.254;6.460;2023-02-12T10:35:57;8.20;99.90
51637;DHT22;37713;53.254;6.460;2023-02-12T10:38:35;8.20;99.90
51637;DHT22;37713;53.254;6.460;2023-02-12T10:41:03;8.20;99.90
51637;DHT22;37713;53.254;6.460;2023-02-12T10:43:29;8.30;99.90
51637;DHT22;37713;53.254;6.460;2023-02-12T10:45:55;8.40;99.90
51637;DHT22;37713;53.254;6.460;2023-02-12T10:48:37;8.50;99.90
51637;DHT22;37713;53.254;6.460;2023-02-12T10:53:37;8.50;99.90
51637;DHT22;37713;53.254;6.460;2023-02-12T11:01:20;8.60;99.90
51637;DHT22;37713;53.254;6.460;2023-02-12T11:03:47;8.70;99.90
51637;DHT22;37713;53.254;6.460;2023-02-12T11:08:41;8.80;99.90
51637;DHT22;37713;53.254;6.460;2023-02-12T11:11:19;8.90;99.90
51637;DHT22;37713;53.254;6.460;2023-02-12T11:14:37;9.00;99.90
51637;DHT22;37713;53.254;6.460;2023-02-12T11:19:21;9.00;99.90
51637;DHT22;37713;53.254;6.460;2023-02-12T11:21:49;9.00;99.90
51637;DHT22;37713;53.254;6.460;2023-02-12T11:29:41;9.20;99.90
51637;DHT22;37713;53.254;6.460;2023-02-12T11:32:14;9.30;99.90
51637;DHT22;37713;53.254;6.460;2023-02-12T11:34:40;9.30;99.90
51637;DHT22;37713;53.254;6.460;2023-02-12T11:37:15;9.50;99.90
51637;DHT22;37713;53.254;6.460;2023-02-12T11:39:45;9.60;99.90
51637;DHT22;37713;53.254;6.460;2023-02-12T11:42:17;9.70;99.90
51637;DHT22;37713;53.254;6.460;2023-02-12T11:44:50;9.80;99.90
51637;DHT22;37713;53.254;6.460;2023-02-12T11:47:26;10.00;99.90
51637;DHT22;37713;53.254;6.460;2023-02-12T11:50:02;10.00;99.90
51637;DHT22;37713;53.254;6.460;2023-02-12T11:52:31;9.90;99.90
51637;DHT22;37713;53.254;6.460;2023-02-12T11:55:00;10.10;99.90
51637;DHT22;37713;53.254;6.460;2023-02-12T12:03:21;10.20;99.90
51637;DHT22;37713;53.254;6.460;2023-02-12T12:06:02;10.10;99.90
51637;DHT22;37713;53.254;6.460;2023-02-12T12:08:55;10.00;99.90
51637;DHT22;37713;53.254;6.460;2023-02-12T12:11:28;10.00;99.90
51637;DHT22;37713;53.254;6.460;2023-02-12T12:17:10;10.00;99.90
51637;DHT22;37713;53.254;6.460;2023-02-12T12:20:06;10.10;99.90
51637;DHT22;37713;53.254;6.460;2023-02-12T12:23:03;10.10;99.90
51637;DHT22;37713;53.254;6.460;2023-02-12T12:25:43;10.30;99.90
51637;DHT22;37713;53.254;6.460;2023-02-12T12:30:56;10.40;99.90
51637;DHT22;37713;53.254;6.460;2023-02-12T12:33:51;10.50;99.90
51637;DHT22;37713;53.254;6.460;2023-02-12T12:36:36;10.50;99.90
51637;DHT22;37713;53.254;6.460;2023-02-12T13:02:41;9.70;99.90
51637;DHT22;37713;53.254;6.460;2023-02-12T13:13:44;9.40;99.90
51637;DHT22;37713;53.254;6.460;2023-02-12T13:16:19;9.40;99.90
51637;DHT22;37713;53.254;6.460;2023-02-12T13:21:52;9.40;99.90
51637;DHT22;37713;53.254;6.460;2023-02-12T13:27:01;9.40;99.90
51637;DHT22;37713;53.254;6.460;2023-02-12T13:29:34;9.40;99.90
51637;DHT22;37713;53.254;6.460;2023-02-12T13:32:05;9.40;99.90
51637;DHT22;37713;53.254;6.460;2023-02-12T13:34:35;9.40;99.90
51637;DHT22;37713;53.254;6.460;2023-02-12T13:37:03;9.50;99.90
51637;DHT22;37713;53.254;6.460;2023-02-12T13:39:35;9.50;99.90
51637;DHT22;37713;53.254;6.460;2023-02-12T13:42:16;9.50;99.90
51637;DHT22;37713;53.254;6.460;2023-02-12T13:50:34;9.60;99.90
51637;DHT22;37713;53.254;6.460;2023-02-12T13:58:38;9.60;99.90
51637;DHT22;37713;53.254;6.460;2023-02-12T14:01:11;9.60;99.90
51637;DHT22;37713;53.254;6.460;2023-02-12T14:03:39;9.50;99.90
51637;DHT22;37713;53.254;6.460;2023-02-12T14:08:48;9.50;99.90
51637;DHT22;37713;53.254;6.460;2023-02-12T14:11:18;9.40;99.90
51637;DHT22;37713;53.254;6.460;2023-02-12T14:13:54;9.30;99.90
51637;DHT22;37713;53.254;6.460;2023-02-12T14:22:11;9.10;99.90
51637;DHT22;37713;53.254;6.460;2023-02-12T14:27:19;9.00;99.90
51637;DHT22;37713;53.254;6.460;2023-02-12T14:37:55;8.80;99.90
51637;DHT22;37713;53.254;6.460;2023-02-12T14:43:01;8.70;99.90
51637;DHT22;37713;53.254;6.460;2023-02-12T14:45:30;8.70;99.90
51637;DHT22;37713;53.254;6.460;2023-02-12T14:47:56;8.70;99.90
51637;DHT22;37713;53.254;6.460;2023-02-12T14:50:24;8.70;99.90
51637;DHT22;37713;53.254;6.460;2023-02-12T14:52:58;8.60;99.90
51637;DHT22;37713;53.254;6.460;2023-02-12T14:55:31;8.60;99.90
51637;DHT22;37713;53.254;6.460;2023-02-12T14:58:04;8.60;99.90
51637;DHT22;37713;53.254;6.460;2023-02-12T15:00:39;8.60;99.90
51637;DHT22;37713;53.254;6.460;2023-02-12T15:08:42;8.60;99.90
51637;DHT22;37713;53.254;6.460;2023-02-12T15:11:35;8.50;99.90
51637;DHT22;37713;53.254;6.460;2023-02-12T15:22:33;8.50;99.90
51637;DHT22;37713;53.254;6.460;2023-02-12T15:25:31;8.50;99.90
51637;DHT22;37713;53.254;6.460;2023-02-12T15:28:32;8.40;99.90
51637;DHT22;37713;53.254;6.460;2023-02-12T15:30:52;8.40;99.90
51637;DHT22;37713;53.254;6.460;2023-02-12T15:33:43;8.40;99.90
51637;DHT22;37713;53.254;6.460;2023-02-12T15:36:16;8.40;99.90
51637;DHT22;37713;53.254;6.460;2023-02-12T15:38:42;8.40;99.90
51637;DHT22;37713;53.254;6.460;2023-02-12T15:43:54;8.40;99.90
51637;DHT22;37713;53.254;6.460;2023-02-12T15:46:20;8.40;99.90
51637;DHT22;37713;53.254;6.460;2023-02-12T15:48:46;8.40;99.90
51637;DHT22;37713;53.254;6.460;2023-02-12T15:53:55;8.30;99.90
51637;DHT22;37713;53.254;6.460;2023-02-12T15:56:22;8.30;99.90
51637;DHT22;37713;53.254;6.460;2023-02-12T15:58:56;8.20;99.90
51637;DHT22;37713;53.254;6.460;2023-02-12T16:01:25;8.20;99.90
51637;DHT22;37713;53.254;6.460;2023-02-12T16:03:59;8.20;99.90
51637;DHT22;37713;53.254;6.460;2023-02-12T16:06:27;8.20;99.90
51637;DHT22;37713;53.254;6.460;2023-02-12T16:09:05;8.10;99.90
51637;DHT22;37713;53.254;6.460;2023-02-12T16:11:33;8.10;99.90
51637;DHT22;37713;53.254;6.460;2023-02-12T16:14:01;8.10;99.90
51637;DHT22;37713;53.254;6.460;2023-02-12T16:16:39;8.00;99.90
51637;DHT22;37713;53.254;6.460;2023-02-12T16:19:28;8.00;99.90
51637;DHT22;37713;53.254;6.460;2023-02-12T16:22:15;8.00;99.90
51637;DHT22;37713;53.254;6.460;2023-02-12T16:24:51;8.00;99.90
51637;DHT22;37713;53.254;6.460;2023-02-12T16:27:33;7.90;99.90
51637;DHT22;37713;53.254;6.460;2023-02-12T16:30:02;7.90;99.90
51637;DHT22;37713;53.254;6.460;2023-02-12T16:32:40;7.90;99.90
51637;DHT22;37713;53.254;6.460;2023-02-12T16:35:26;7.90;99.90
51637;DHT22;37713;53.254;6.460;2023-02-12T16:38:37;7.90;99.90
51637;DHT22;37713;53.254;6.460;2023-02-12T16:46:44;7.80;99.90
51637;DHT22;37713;53.254;6.460;2023-02-12T16:49:18;7.80;99.90
51637;DHT22;37713;53.254;6.460;2023-02-12T16:51:45;7.80;99.90
51637;DHT22;37713;53.254;6.460;2023-02-12T16:54:26;7.70;99.90
51637;DHT22;37713;53.254;6.460;2023-02-12T16:56:53;7.70;99.90
51637;DHT22;37713;53.254;6.460;2023-02-12T16:59:18;7.70;99.90
51637;DHT22;37713;53.254;6.460;2023-02-12T17:02:16;7.60;99.90
51637;DHT22;37713;53.254;6.460;2023-02-12T17:04:42;7.60;99.90
51637;DHT22;37713;53.254;6.460;2023-02-12T17:07:22;7.60;99.90
51637;DHT22;37713;53.254;6.460;2023-02-12T17:09:49;7.60;99.90
51637;DHT22;37713;53.254;6.460;2023-02-12T17:12:15;7.60;99.90
51637;DHT22;37713;53.254;6.460;2023-02-12T17:14:41;7.60;99.90
51637;DHT22;37713;53.254;6.460;2023-02-12T17:17:07;7.60;99.90
51637;DHT22;37713;53.254;6.460;2023-02-12T17:19:33;7.50;99.90
51637;DHT22;37713;53.254;6.460;2023-02-12T17:21:59;7.50;99.90
51637;DHT22;37713;53.254;6.460;2023-02-12T17:24:27;7.50;99.90
51637;DHT22;37713;53.254;6.460;2023-02-12T17:26:53;7.50;99.90
51637;DHT22;37713;53.254;6.460;2023-02-12T17:29:21;7.50;99.90
51637;DHT22;37713;53.254;6.460;2023-02-12T17:31:48;7.50;99.90
51637;DHT22;37713;53.254;6.460;2023-02-12T17:34:14;7.50;99.90
51637;DHT22;37713;53.254;6.460;2023-02-12T17:36:40;7.50;99.90
51637;DHT22;37713;53.254;6.460;2023-02-12T17:39:07;7.40;99.90
51637;DHT22;37713;53.254;6.460;2023-02-12T17:41:34;7.40;99.90
51637;DHT22;37713;53.254;6.460;2023-02-12T17:43:59;7.40;99.90
51637;DHT22;37713;53.254;6.460;2023-02-12T17:46:27;7.40;99.90
51637;DHT22;37713;53.254;6.460;2023-02-12T17:48:54;7.40;99.90
51637;DHT22;37713;53.254;6.460;2023-02-12T17:51:20;7.40;99.90
51637;DHT22;37713;53.254;6.460;2023-02-12T17:53:46;7.40;99.90
51637;DHT22;37713;53.254;6.460;2023-02-12T17:56:14;7.40;99.90
51637;DHT22;37713;53.254;6.460;2023-02-12T17:58:40;7.40;99.90
51637;DHT22;37713;53.254;6.460;2023-02-12T18:01:08;7.30;99.90
51637;DHT22;37713;53.254;6.460;2023-02-12T18:03:34;7.30;99.90
51637;DHT22;37713;53.254;6.460;2023-02-12T18:06:00;7.30;99.90
51637;DHT22;37713;53.254;6.460;2023-02-12T18:08:27;7.30;99.90
51637;DHT22;37713;53.254;6.460;2023-02-12T18:10:53;7.30;99.90
51637;DHT22;37713;53.254;6.460;2023-02-12T18:13:19;7.30;99.90
51637;DHT22;37713;53.254;6.460;2023-02-12T18:15:45;7.30;99.90
51637;DHT22;37713;53.254;6.460;2023-02-12T18:18:11;7.30;99.90
51637;DHT22;37713;53.254;6.460;2023-02-12T18:20:39;7.20;99.90
51637;DHT22;37713;53.254;6.460;2023-02-12T18:23:05;7.30;99.90
51637;DHT22;37713;53.254;6.460;2023-02-12T18:25:33;7.20;99.90
51637;DHT22;37713;53.254;6.460;2023-02-12T18:27:59;7.20;99.90
51637;DHT22;37713;53.254;6.460;2023-02-12T18:30:28;7.20;99.90
51637;DHT22;37713;53.254;6.460;2023-02-12T18:32:54;7.20;99.90
51637;DHT22;37713;53.254;6.460;2023-02-12T18:35:19;7.20;99.90
51637;DHT22;37713;53.254;6.460;2023-02-12T18:37:45;7.20;99.90
51637;DHT22;37713;53.254;6.460;2023-02-12T18:40:12;7.20;99.90
51637;DHT22;37713;53.254;6.460;2023-02-12T18:42:38;7.20;99.90
51637;DHT22;37713;53.254;6.460;2023-02-12T18:45:04;7.20;99.90
51637;DHT22;37713;53.254;6.460;2023-02-12T18:47:30;7.20;99.90
51637;DHT22;37713;53.254;6.460;2023-02-12T18:49:56;7.10;99.90
51637;DHT22;37713;53.254;6.460;2023-02-12T18:52:23;7.10;99.90
51637;DHT22;37713;53.254;6.460;2023-02-12T18:54:48;7.10;99.90
51637;DHT22;37713;53.254;6.460;2023-02-12T18:57:14;7.10;99.90
51637;DHT22;37713;53.254;6.460;2023-02-12T18:59:40;7.10;99.90
51637;DHT22;37713;53.254;6.460;2023-02-12T19:02:06;7.10;99.90
51637;DHT22;37713;53.254;6.460;2023-02-12T19:04:32;7.10;99.90
51637;DHT22;37713;53.254;6.460;2023-02-12T19:06:58;7.10;99.90
51637;DHT22;37713;53.254;6.460;2023-02-12T19:09:24;7.00;99.90
51637;DHT22;37713;53.254;6.460;2023-02-12T19:11:53;7.00;99.90
51637;DHT22;37713;53.254;6.460;2023-02-12T19:14:21;7.00;99.90
51637;DHT22;37713;53.254;6.460;2023-02-12T19:16:47;7.00;99.90
51637;DHT22;37713;53.254;6.460;2023-02-12T19:19:16;7.00;99.90
51637;DHT22;37713;53.254;6.460;2023-02-12T19:21:42;7.00;99.90
51637;DHT22;37713;53.254;6.460;2023-02-12T19:24:11;6.90;99.90
51637;DHT22;37713;53.254;6.460;2023-02-12T19:26:36;7.00;99.90
51637;DHT22;37713;53.254;6.460;2023-02-12T19:29:03;6.90;99.90